Time;durP1;ratioP1;P1;durP2;ratioP2;P2;SDS_P1;SDS_P2;PMS_P1;PMS_P2;Temp;Humidity;BMP_temperature;BMP_pressure;BME280_temperature;BME280_humidity;BME280_pressure;Samples;Min_cycle;Max_cycle;Signal;HPM_P1;HPM_P2
2021/12/07 00:02:12;;;;;;;30.13;27.83;;;;;;;;;;5093540;28;20732;-84
2021/12/07 00:04:40;;;;;;;30.02;27.83;;;;;;;;;;5093762;28;20223;-83
2021/12/07 00:07:08;;;;;;;30.30;28.00;;;;;;;;;;5093212;28;20224;-84
2021/12/07 00:09:36;;;;;;;30.70;28.30;;;;;;;;;;5093181;28;20224;-84
2021/12/07 00:12:04;;;;;;;28.80;26.80;;;;;;;;;;5094993;28;20191;-84
2021/12/07 00:14:38;;;;;;;30.95;28.48;;;;;;;;;;5095538;28;20190;-84
2021/12/07 00:17:06;;;;;;;30.50;28.15;;;;;;;;;;5094092;28;20192;-83
2021/12/07 00:19:33;;;;;;;29.27;27.08;;;;;;;;;;5094050;28;20195;-83
2021/12/07 00:22:01;;;;;;;29.67;27.40;;;;;;;;;;5094147;28;20193;-84
2021/12/07 00:24:29;;;;;;;29.42;27.10;;;;;;;;;;5094231;28;20606;-84
2021/12/07 00:26:57;;;;;;;29.63;27.42;;;;;;;;;;5094249;28;20542;-84
2021/12/07 00:29:24;;;;;;;28.10;26.20;;;;;;;;;;5093743;28;20215;-84
2021/12/07 00:32:06;;;;;;;29.45;27.17;;;;;;;;;;5093204;28;20223;-84
2021/12/07 00:34:45;;;;;;;28.55;26.38;;;;;;;;;;5092937;28;20641;-84
2021/12/07 00:37:12;;;;;;;28.77;26.77;;;;;;;;;;5093270;28;20206;-84
2021/12/07 00:39:40;;;;;;;28.88;26.90;;;;;;;;;;5092844;28;20207;-82
2021/12/07 00:42:07;;;;;;;27.88;25.90;;;;;;;;;;5092887;28;20194;-84
2021/12/07 00:44:35;;;;;;;29.70;27.60;;;;;;;;;;5092739;28;20703;-84
2021/12/07 00:47:04;;;;;;;27.73;25.83;;;;;;;;;;5092652;28;20192;-84
2021/12/07 00:49:31;;;;;;;29.27;27.08;;;;;;;;;;5093219;28;20211;-83
2021/12/07 00:51:59;;;;;;;27.70;25.80;;;;;;;;;;5092680;28;20200;-83
2021/12/07 00:54:26;;;;;;;28.55;26.35;;;;;;;;;;5092869;28;20188;-84
2021/12/07 00:56:54;;;;;;;29.70;27.40;;;;;;;;;;5092558;28;20691;-83
2021/12/07 00:59:21;;;;;;;29.13;27.02;;;;;;;;;;5093601;28;20196;-84
2021/12/07 01:01:48;;;;;;;29.00;26.90;;;;;;;;;;5094173;28;20629;-84
2021/12/07 01:04:17;;;;;;;30.27;27.77;;;;;;;;;;5094074;28;20676;-84
2021/12/07 01:06:49;;;;;;;28.65;26.60;;;;;;;;;;5098488;28;20223;-84
2021/12/07 01:09:26;;;;;;;28.80;26.70;;;;;;;;;;5114087;28;20708;-84
2021/12/07 01:25:47;;;;;;;32.40;29.70;;;;;;;;;;5116593;28;20646;-83
2021/12/07 01:28:22;;;;;;;29.33;27.10;;;;;;;;;;5123690;28;20221;-84
2021/12/07 01:30:55;;;;;;;30.63;28.17;;;;;;;;;;5127616;27;20230;-84
2021/12/07 01:33:38;;;;;;;28.95;26.60;;;;;;;;;;5115879;28;20195;-84
2021/12/07 01:36:21;;;;;;;30.23;27.92;;;;;;;;;;5117021;28;20199;-84
2021/12/07 01:42:51;;;;;;;29.05;26.55;;;;;;;;;;5114696;28;20208;-82
2021/12/07 01:44:59;;;;;;;24.15;22.63;;;;;;;;;;5114287;28;20199;-84
2021/12/07 01:52:56;;;;;;;28.98;26.85;;;;;;;;;;5117095;28;20183;-84
2021/12/07 02:00:55;;;;;;;27.95;25.75;;;;;;;;;;5115231;28;20194;-83
2021/12/07 02:03:26;;;;;;;29.73;27.60;;;;;;;;;;5117289;28;20199;-84
2021/12/07 02:05:53;;;;;;;28.40;26.30;;;;;;;;;;5114652;28;20236;-83
2021/12/07 02:08:23;;;;;;;29.65;27.17;;;;;;;;;;5099859;28;20187;-84
2021/12/07 02:10:52;;;;;;;29.70;27.40;;;;;;;;;;5094787;28;20290;-83
2021/12/07 02:14:03;;;;;;;28.75;26.67;;;;;;;;;;5094665;28;20188;-84
2021/12/07 02:16:11;;;;;;;30.13;27.83;;;;;;;;;;5097350;28;20210;-84
2021/12/07 02:18:39;;;;;;;27.90;25.90;;;;;;;;;;5099635;28;20546;-84
2021/12/07 02:21:23;;;;;;;27.48;25.38;;;;;;;;;;5096888;28;20203;-83
2021/12/07 02:23:51;;;;;;;29.38;27.25;;;;;;;;;;5099071;28;20245;-82
2021/12/07 02:26:19;;;;;;;28.67;26.60;;;;;;;;;;5100218;28;20186;-83
2021/12/07 02:28:49;;;;;;;28.35;26.35;;;;;;;;;;5097677;28;20193;-84
2021/12/07 02:31:16;;;;;;;29.40;27.00;;;;;;;;;;5101095;28;20259;-84
2021/12/07 02:33:44;;;;;;;28.67;26.67;;;;;;;;;;5099845;28;20220;-83
2021/12/07 02:36:12;;;;;;;30.77;28.17;;;;;;;;;;5099100;28;20606;-84
2021/12/07 02:38:41;;;;;;;28.10;26.02;;;;;;;;;;5098219;28;20720;-83
2021/12/07 02:41:18;;;;;;;28.65;26.23;;;;;;;;;;5109289;28;20189;-84
2021/12/07 02:43:46;;;;;;;26.52;24.50;;;;;;;;;;5111890;28;20189;-84
2021/12/07 02:46:13;;;;;;;29.15;26.90;;;;;;;;;;5096833;28;20587;-84
2021/12/07 02:48:44;;;;;;;27.75;25.65;;;;;;;;;;5096283;28;20223;-82
2021/12/07 02:51:12;;;;;;;28.23;26.13;;;;;;;;;;5096916;28;20248;-84
2021/12/07 02:53:40;;;;;;;29.42;27.17;;;;;;;;;;5096117;28;20294;-83
2021/12/07 02:56:09;;;;;;;28.52;26.42;;;;;;;;;;5095894;28;20207;-83
2021/12/07 02:58:36;;;;;;;28.80;26.60;;;;;;;;;;5097045;28;20201;-84
2021/12/07 03:01:10;;;;;;;28.45;26.42;;;;;;;;;;5097627;28;20189;-84
2021/12/07 03:03:43;;;;;;;26.10;24.33;;;;;;;;;;5096449;28;20242;-83
2021/12/07 03:06:18;;;;;;;27.33;24.92;;;;;;;;;;5095000;28;20234;-83
2021/12/07 03:28:18;;;;;;;29.10;26.70;;;;;;;;;;5115307;28;20190;-84
2021/12/07 03:30:45;;;;;;;27.77;25.75;;;;;;;;;;5115263;28;20573;-82
2021/12/07 03:33:13;;;;;;;28.48;26.38;;;;;;;;;;5114416;28;20195;-84
2021/12/07 03:35:40;;;;;;;28.73;26.67;;;;;;;;;;5115163;28;20195;-84
2021/12/07 03:38:09;;;;;;;28.90;26.90;;;;;;;;;;5117470;28;20526;-83
2021/12/07 03:40:38;;;;;;;28.08;26.08;;;;;;;;;;5114646;28;20227;-83
2021/12/07 03:43:07;;;;;;;29.30;27.20;;;;;;;;;;5114708;28;20211;-83
2021/12/07 03:45:34;;;;;;;29.70;27.40;;;;;;;;;;5114746;28;20668;-83
2021/12/07 03:48:03;;;;;;;30.92;28.42;;;;;;;;;;5114956;28;20206;-84
2021/12/07 03:50:30;;;;;;;29.20;26.80;;;;;;;;;;5115049;28;20220;-82
2021/12/07 03:52:57;;;;;;;29.95;27.45;;;;;;;;;;5114840;28;20685;-84
2021/12/07 03:55:25;;;;;;;30.10;27.50;;;;;;;;;;5114711;28;20206;-84
2021/12/07 03:57:54;;;;;;;29.48;27.08;;;;;;;;;;5114949;28;20203;-83
2021/12/07 04:00:23;;;;;;;28.83;26.63;;;;;;;;;;5114553;28;20185;-83
2021/12/07 04:02:51;;;;;;;28.75;26.65;;;;;;;;;;5115482;28;20197;-83
2021/12/07 04:05:20;;;;;;;28.90;26.48;;;;;;;;;;5115390;28;20182;-84
2021/12/07 04:07:47;;;;;;;28.20;26.10;;;;;;;;;;5102791;28;20283;-84
2021/12/07 04:10:17;;;;;;;28.90;26.83;;;;;;;;;;5093489;28;20232;-83
2021/12/07 04:12:44;;;;;;;28.35;26.40;;;;;;;;;;5094326;28;20619;-84
2021/12/07 04:15:14;;;;;;;28.40;26.33;;;;;;;;;;5093742;28;20193;-83
2021/12/07 04:17:42;;;;;;;28.83;26.63;;;;;;;;;;5094445;28;20189;-83
2021/12/07 04:20:11;;;;;;;28.30;26.27;;;;;;;;;;5094448;28;20249;-83
2021/12/07 04:22:38;;;;;;;28.58;26.48;;;;;;;;;;5093738;28;20193;-83
2021/12/07 04:25:07;;;;;;;31.05;28.63;;;;;;;;;;5093687;28;20246;-83
2021/12/07 04:27:38;;;;;;;28.10;26.10;;;;;;;;;;5094113;28;20269;-83
2021/12/07 04:30:06;;;;;;;29.20;26.90;;;;;;;;;;5094981;28;20216;-83
2021/12/07 04:32:35;;;;;;;28.50;26.50;;;;;;;;;;5093545;28;20189;-82
2021/12/07 04:35:04;;;;;;;28.05;25.95;;;;;;;;;;5094600;28;20225;-82
2021/12/07 04:37:31;;;;;;;27.75;25.70;;;;;;;;;;5094259;28;20608;-83
2021/12/07 04:39:58;;;;;;;28.65;26.48;;;;;;;;;;5095521;28;20197;-84
2021/12/07 04:42:26;;;;;;;27.70;25.90;;;;;;;;;;5100328;28;20597;-83
2021/12/07 04:44:58;;;;;;;28.50;26.30;;;;;;;;;;5093883;28;20192;-83
2021/12/07 04:47:35;;;;;;;27.77;25.73;;;;;;;;;;5094063;28;20207;-84
2021/12/07 04:58:25;;;;;;;26.90;25.10;;;;;;;;;;5066535;28;20211;-83
2021/12/07 05:00:53;;;;;;;25.77;23.77;;;;;;;;;;5093558;28;20193;-84
2021/12/07 05:03:21;;;;;;;27.40;25.30;;;;;;;;;;5102339;28;20192;-83
2021/12/07 05:05:52;;;;;;;26.65;24.75;;;;;;;;;;5095260;28;20256;-84
2021/12/07 05:08:32;;;;;;;27.48;25.38;;;;;;;;;;5107955;28;20294;-84
2021/12/07 05:13:52;;;;;;;26.10;24.30;;;;;;;;;;5099484;28;20329;-83
2021/12/07 05:16:40;;;;;;;27.42;25.42;;;;;;;;;;5112642;28;20632;-83
2021/12/07 05:23:53;;;;;;;28.13;26.00;;;;;;;;;;5113074;28;20206;-84
2021/12/07 05:25:09;;;;;;;27.25;25.15;;;;;;;;;;5112754;28;20335;-82
2021/12/07 05:38:38;;;;;;;27.58;25.42;;;;;;;;;;5112457;28;20270;-84
2021/12/07 05:41:07;;;;;;;29.30;27.00;;;;;;;;;;5112736;28;20652;-83
2021/12/07 05:43:34;;;;;;;30.23;27.90;;;;;;;;;;5112623;28;20188;-84
2021/12/07 05:46:02;;;;;;;30.90;28.38;;;;;;;;;;5112303;28;20217;-83
2021/12/07 05:48:29;;;;;;;31.02;28.63;;;;;;;;;;5113534;28;20215;-82
2021/12/07 05:50:56;;;;;;;29.40;27.20;;;;;;;;;;5116110;28;20229;-83
2021/12/07 05:53:26;;;;;;;30.90;28.20;;;;;;;;;;5116229;28;20555;-83
2021/12/07 05:55:55;;;;;;;30.75;28.15;;;;;;;;;;5116205;28;20695;-83
2021/12/07 05:58:22;;;;;;;31.98;29.48;;;;;;;;;;5118420;28;20187;-83
2021/12/07 06:00:50;;;;;;;29.90;27.50;;;;;;;;;;5117645;28;20199;-83
2021/12/07 06:03:18;;;;;;;31.75;29.08;;;;;;;;;;5117663;28;20259;-83
2021/12/07 06:05:45;;;;;;;30.70;28.23;;;;;;;;;;5116223;27;20645;-84
2021/12/07 06:08:13;;;;;;;29.75;27.45;;;;;;;;;;5102384;27;20196;-83
2021/12/07 06:10:40;;;;;;;30.30;27.80;;;;;;;;;;5096108;28;20273;-83
2021/12/07 06:13:09;;;;;;;31.98;29.30;;;;;;;;;;5094621;28;20191;-84
2021/12/07 06:15:38;;;;;;;31.42;28.90;;;;;;;;;;5095278;28;20554;-83
2021/12/07 06:18:07;;;;;;;33.03;30.17;;;;;;;;;;5095409;28;20241;-83
2021/12/07 06:20:35;;;;;;;32.40;29.77;;;;;;;;;;5097493;28;20192;-83
2021/12/07 06:23:02;;;;;;;32.08;29.52;;;;;;;;;;5100101;28;20195;-82
2021/12/07 06:25:30;;;;;;;33.08;30.27;;;;;;;;;;5097358;28;20210;-83
2021/12/07 06:27:57;;;;;;;32.13;29.55;;;;;;;;;;5098036;28;20189;-83
2021/12/07 06:30:26;;;;;;;31.95;29.25;;;;;;;;;;5096213;28;20719;-82
2021/12/07 06:32:54;;;;;;;33.55;30.95;;;;;;;;;;5093930;28;20204;-82
2021/12/07 06:35:21;;;;;;;34.25;31.25;;;;;;;;;;5095609;28;20195;-81
2021/12/07 06:37:48;;;;;;;33.97;31.13;;;;;;;;;;5095330;28;20188;-82
2021/12/07 06:40:15;;;;;;;33.45;30.42;;;;;;;;;;5104906;28;20195;-83
2021/12/07 06:42:43;;;;;;;35.03;31.98;;;;;;;;;;5100059;28;20189;-83
2021/12/07 06:45:11;;;;;;;35.40;32.20;;;;;;;;;;5098871;28;20642;-82
2021/12/07 06:47:41;;;;;;;34.20;31.20;;;;;;;;;;5097303;28;20620;-82
2021/12/07 06:50:10;;;;;;;36.25;33.05;;;;;;;;;;5095334;28;20590;-82
2021/12/07 06:52:37;;;;;;;37.15;33.53;;;;;;;;;;5096185;28;20220;-83
2021/12/07 06:55:05;;;;;;;36.97;33.58;;;;;;;;;;5095151;28;20215;-83
2021/12/07 06:57:32;;;;;;;35.63;32.50;;;;;;;;;;5094586;28;20196;-83
2021/12/07 06:59:59;;;;;;;38.47;34.78;;;;;;;;;;5094524;28;20196;-83
2021/12/07 07:02:27;;;;;;;36.50;33.20;;;;;;;;;;5094596;28;20186;-82
2021/12/07 07:04:56;;;;;;;35.97;32.67;;;;;;;;;;5094767;28;20199;-83
2021/12/07 07:07:24;;;;;;;38.47;34.80;;;;;;;;;;5100656;28;20226;-83
2021/12/07 07:09:51;;;;;;;38.63;34.88;;;;;;;;;;5114505;28;20285;-82
2021/12/07 07:12:19;;;;;;;38.50;34.70;;;;;;;;;;5114927;28;20222;-83
2021/12/07 07:14:47;;;;;;;39.15;35.28;;;;;;;;;;5114775;28;20187;-83
2021/12/07 07:17:15;;;;;;;39.38;35.63;;;;;;;;;;5114617;27;20192;-82
2021/12/07 07:19:42;;;;;;;42.10;38.00;;;;;;;;;;5114698;27;20640;-83
2021/12/07 07:22:11;;;;;;;39.53;35.70;;;;;;;;;;5114860;28;20191;-84
2021/12/07 07:24:39;;;;;;;39.72;35.72;;;;;;;;;;5114802;28;20191;-83
2021/12/07 07:27:07;;;;;;;41.00;36.85;;;;;;;;;;5114486;28;20647;-83
2021/12/07 07:29:34;;;;;;;41.47;37.28;;;;;;;;;;5113991;27;20249;-83
2021/12/07 07:32:02;;;;;;;42.15;37.95;;;;;;;;;;5114261;28;20652;-83
2021/12/07 07:34:29;;;;;;;41.10;36.88;;;;;;;;;;5114412;28;20222;-83
2021/12/07 07:36:57;;;;;;;38.28;34.17;;;;;;;;;;5114371;28;20187;-84
2021/12/07 07:39:25;;;;;;;42.78;38.67;;;;;;;;;;5114137;28;20243;-83
2021/12/07 07:41:53;;;;;;;43.50;38.97;;;;;;;;;;5113903;28;20196;-83
2021/12/07 07:44:21;;;;;;;41.00;37.00;;;;;;;;;;5114063;28;20658;-83
2021/12/07 07:46:48;;;;;;;44.25;38.92;;;;;;;;;;5114288;28;20204;-83
2021/12/07 07:49:15;;;;;;;42.13;37.65;;;;;;;;;;5113873;28;20191;-82
2021/12/07 07:51:42;;;;;;;42.58;38.15;;;;;;;;;;5113754;28;20208;-83
2021/12/07 07:54:10;;;;;;;41.28;37.03;;;;;;;;;;5112596;28;20203;-82
2021/12/07 07:56:40;;;;;;;39.45;35.72;;;;;;;;;;5114234;28;20192;-83
2021/12/07 07:59:07;;;;;;;42.28;37.97;;;;;;;;;;5113864;28;20199;-81
2021/12/07 08:01:35;;;;;;;40.30;36.20;;;;;;;;;;5120001;28;20204;-82
2021/12/07 08:04:04;;;;;;;40.25;36.13;;;;;;;;;;5114501;28;20204;-83
2021/12/07 08:06:31;;;;;;;38.67;34.55;;;;;;;;;;5116428;28;20230;-83
2021/12/07 08:08:59;;;;;;;44.40;37.33;;;;;;;;;;5096544;28;20198;-83
2021/12/07 08:11:27;;;;;;;40.10;35.90;;;;;;;;;;5093228;28;20219;-83
2021/12/07 08:13:56;;;;;;;40.10;35.17;;;;;;;;;;5093075;28;20539;-83
2021/12/07 08:16:23;;;;;;;38.47;34.42;;;;;;;;;;5093322;28;20191;-83
2021/12/07 08:18:52;;;;;;;39.53;35.28;;;;;;;;;;5092852;28;20204;-83
2021/12/07 08:21:19;;;;;;;39.72;35.72;;;;;;;;;;5091721;28;20206;-83
2021/12/07 08:23:47;;;;;;;41.05;36.83;;;;;;;;;;5092972;28;20593;-82
2021/12/07 08:26:16;;;;;;;36.30;32.67;;;;;;;;;;5092715;28;20658;-83
2021/12/07 08:28:43;;;;;;;39.97;35.78;;;;;;;;;;5092630;28;20238;-83
2021/12/07 08:31:12;;;;;;;41.92;36.60;;;;;;;;;;5092582;28;20227;-82
2021/12/07 08:33:40;;;;;;;37.30;33.70;;;;;;;;;;5092777;28;20206;-82
2021/12/07 08:36:07;;;;;;;45.53;36.45;;;;;;;;;;5093064;28;20213;-83
2021/12/07 08:38:34;;;;;;;40.70;36.28;;;;;;;;;;5092450;28;20202;-82
2021/12/07 08:41:02;;;;;;;40.30;36.10;;;;;;;;;;5092628;28;20200;-81
2021/12/07 08:43:30;;;;;;;40.78;36.45;;;;;;;;;;5092658;28;20195;-82
2021/12/07 08:45:58;;;;;;;42.67;38.10;;;;;;;;;;5092462;28;20198;-82
2021/12/07 08:48:28;;;;;;;41.65;37.25;;;;;;;;;;5092677;28;20200;-82
2021/12/07 08:50:56;;;;;;;41.33;36.72;;;;;;;;;;5092592;28;20192;-82
2021/12/07 08:53:24;;;;;;;42.17;37.60;;;;;;;;;;5092763;28;20197;-82
2021/12/07 09:01:23;;;;;;;41.63;35.55;;;;;;;;;;5092220;28;20318;-82
2021/12/07 09:03:52;;;;;;;40.20;36.10;;;;;;;;;;5092366;28;20191;-82
2021/12/07 09:06:19;;;;;;;39.95;35.63;;;;;;;;;;5091938;28;20231;-82
2021/12/07 09:08:47;;;;;;;40.58;36.33;;;;;;;;;;5109730;28;20208;-82
2021/12/07 09:11:15;;;;;;;42.67;35.72;;;;;;;;;;5112302;28;20192;-82
2021/12/07 09:13:43;;;;;;;48.50;38.33;;;;;;;;;;5112681;28;20188;-82
2021/12/07 09:16:11;;;;;;;38.38;34.38;;;;;;;;;;5112248;28;20724;-84
2021/12/07 09:18:38;;;;;;;38.03;33.72;;;;;;;;;;5112240;28;20191;-83
2021/12/07 09:21:07;;;;;;;39.08;35.17;;;;;;;;;;5112768;28;20286;-83
2021/12/07 09:23:35;;;;;;;34.40;30.88;;;;;;;;;;5115565;28;20550;-82
2021/12/07 09:26:03;;;;;;;37.90;34.10;;;;;;;;;;5117565;28;20196;-86
2021/12/07 09:28:30;;;;;;;37.83;33.80;;;;;;;;;;5117437;28;20253;-86
2021/12/07 09:30:59;;;;;;;37.90;34.08;;;;;;;;;;5119906;27;20248;-89
2021/12/07 09:33:27;;;;;;;37.38;33.17;;;;;;;;;;5117401;28;20216;-83
2021/12/07 09:35:56;;;;;;;36.83;32.30;;;;;;;;;;5116894;28;20195;-81
2021/12/07 09:38:25;;;;;;;36.28;32.78;;;;;;;;;;5116723;28;20188;-83
2021/12/07 09:40:54;;;;;;;35.00;31.38;;;;;;;;;;5116776;28;20190;-82
2021/12/07 09:43:22;;;;;;;34.15;30.80;;;;;;;;;;5114856;28;20206;-82
2021/12/07 09:45:50;;;;;;;35.20;31.58;;;;;;;;;;5116402;28;20278;-82
2021/12/07 09:48:18;;;;;;;34.75;31.52;;;;;;;;;;5116178;27;20194;-82
2021/12/07 09:50:49;;;;;;;36.63;32.00;;;;;;;;;;5116015;28;20660;-82
2021/12/07 09:53:17;;;;;;;33.47;30.27;;;;;;;;;;5115951;28;20283;-83
2021/12/07 09:55:47;;;;;;;34.88;31.58;;;;;;;;;;5116050;28;20187;-82
2021/12/07 09:58:14;;;;;;;33.35;30.35;;;;;;;;;;5116445;28;20597;-83
2021/12/07 10:00:43;;;;;;;49.88;33.00;;;;;;;;;;5114622;28;20199;-82
2021/12/07 10:03:11;;;;;;;36.58;33.28;;;;;;;;;;5116069;28;20196;-82
2021/12/07 10:05:40;;;;;;;35.17;31.63;;;;;;;;;;5115660;28;20238;-89
2021/12/07 10:08:08;;;;;;;38.08;33.95;;;;;;;;;;5117185;28;20623;-94
2021/12/07 10:10:37;;;;;;;34.88;31.63;;;;;;;;;;5116994;28;20244;-96
2021/12/07 10:13:08;;;;;;;33.80;30.65;;;;;;;;;;5119387;27;20244;-96
2021/12/07 10:15:36;;;;;;;30.33;27.80;;;;;;;;;;5116388;28;20197;-84
2021/12/07 10:18:05;;;;;;;37.20;33.65;;;;;;;;;;5095667;28;20547;-84
2021/12/07 10:20:38;;;;;;;39.40;32.95;;;;;;;;;;5095408;28;20200;-84
2021/12/07 10:23:07;;;;;;;35.42;31.90;;;;;;;;;;5095785;28;20196;-94
2021/12/07 10:25:35;;;;;;;35.72;31.95;;;;;;;;;;5096577;28;20189;-94
2021/12/07 10:28:02;;;;;;;37.35;33.42;;;;;;;;;;5095756;28;20225;-94
2021/12/07 10:30:31;;;;;;;40.25;35.50;;;;;;;;;;5096978;28;20220;-94
2021/12/07 10:33:02;;;;;;;39.28;35.13;;;;;;;;;;5097512;28;20283;-93
2021/12/07 10:35:32;;;;;;;40.35;36.55;;;;;;;;;;5105388;28;20226;-96
2021/12/07 10:38:10;;;;;;;43.78;38.42;;;;;;;;;;5106309;28;20220;-95
2021/12/07 10:40:55;;;;;;;38.50;34.50;;;;;;;;;;5100746;27;20208;-96
2021/12/07 10:43:38;;;;;;;40.95;36.55;;;;;;;;;;5094987;28;20196;-81
2021/12/07 10:46:25;;;;;;;44.03;38.88;;;;;;;;;;5094791;28;20201;-89
2021/12/07 10:49:08;;;;;;;42.47;38.10;;;;;;;;;;5096025;28;20197;-87
2021/12/07 10:51:37;;;;;;;50.80;41.17;;;;;;;;;;5095786;28;20645;-85
2021/12/07 10:54:05;;;;;;;45.90;41.00;;;;;;;;;;5095556;28;20235;-86
2021/12/07 10:56:34;;;;;;;46.60;38.17;;;;;;;;;;5097635;28;20205;-85
2021/12/07 10:59:03;;;;;;;44.38;39.60;;;;;;;;;;5095341;28;20210;-85
2021/12/07 11:01:38;;;;;;;49.15;42.22;;;;;;;;;;5096060;28;20287;-86
2021/12/07 11:04:29;;;;;;;43.08;38.30;;;;;;;;;;5095031;28;20240;-83
2021/12/07 11:07:11;;;;;;;48.42;40.50;;;;;;;;;;5094588;28;20239;-82
2021/12/07 11:09:40;;;;;;;44.38;40.03;;;;;;;;;;5095499;28;20187;-80
2021/12/07 11:12:09;;;;;;;41.72;37.45;;;;;;;;;;5095143;27;21011;-85
2021/12/07 11:14:41;;;;;;;46.72;40.33;;;;;;;;;;5094478;28;20186;-80
2021/12/07 11:17:10;;;;;;;42.97;38.92;;;;;;;;;;5094597;28;20254;-79
2021/12/07 11:19:38;;;;;;;46.40;38.22;;;;;;;;;;5094159;28;20193;-86
2021/12/07 11:22:05;;;;;;;52.72;42.47;;;;;;;;;;5094661;28;20636;-84
2021/12/07 11:24:36;;;;;;;50.83;43.17;;;;;;;;;;5095254;28;20189;-90
2021/12/07 11:29:58;;;;;;;48.08;42.55;;;;;;;;;;5094360;28;20260;-82
2021/12/07 11:32:27;;;;;;;45.33;40.58;;;;;;;;;;5094039;28;20221;-78
2021/12/07 11:34:54;;;;;;;44.78;39.38;;;;;;;;;;5100517;28;20204;-86
2021/12/07 11:37:22;;;;;;;47.35;42.20;;;;;;;;;;5097556;28;20572;-82
2021/12/07 11:39:52;;;;;;;46.42;41.35;;;;;;;;;;5094226;28;20219;-91
2021/12/07 11:42:20;;;;;;;47.90;42.72;;;;;;;;;;5094203;28;20226;-86
2021/12/07 11:44:49;;;;;;;50.47;40.00;;;;;;;;;;5094169;28;20197;-90
2021/12/07 11:47:17;;;;;;;52.20;43.40;;;;;;;;;;5093539;28;20210;-84
2021/12/07 11:49:46;;;;;;;47.58;41.78;;;;;;;;;;5095969;28;20189;-83
2021/12/07 11:52:13;;;;;;;53.60;44.08;;;;;;;;;;5094289;28;20279;-84
2021/12/07 11:54:43;;;;;;;53.85;43.65;;;;;;;;;;5094055;28;20557;-89
2021/12/07 11:57:11;;;;;;;58.42;43.65;;;;;;;;;;5093441;28;20185;-83
2021/12/07 11:59:39;;;;;;;50.53;43.30;;;;;;;;;;5093962;28;20200;-84
2021/12/07 12:02:06;;;;;;;49.45;41.72;;;;;;;;;;5094089;28;20201;-85
2021/12/07 12:04:34;;;;;;;48.05;42.55;;;;;;;;;;5094048;28;20203;-85
2021/12/07 12:07:03;;;;;;;48.60;40.90;;;;;;;;;;5093466;28;20233;-84
2021/12/07 12:09:30;;;;;;;51.38;44.38;;;;;;;;;;5093870;28;20200;-85
2021/12/07 12:12:04;;;;;;;47.88;42.53;;;;;;;;;;5093975;28;20188;-84
2021/12/07 12:14:38;;;;;;;58.60;43.40;;;;;;;;;;5094208;28;20194;-85
2021/12/07 12:17:09;;;;;;;50.28;42.63;;;;;;;;;;5092500;28;20255;-85
2021/12/07 12:19:44;;;;;;;47.83;42.63;;;;;;;;;;5093863;28;20195;-85
2021/12/07 12:22:17;;;;;;;48.13;42.90;;;;;;;;;;5094156;28;20440;-85
2021/12/07 12:24:48;;;;;;;45.67;40.53;;;;;;;;;;5094409;28;20195;-85
2021/12/07 12:27:17;;;;;;;50.65;41.55;;;;;;;;;;5093992;28;20185;-86
2021/12/07 12:29:46;;;;;;;45.13;40.47;;;;;;;;;;5094246;28;20614;-85
2021/12/07 12:32:13;;;;;;;42.40;38.08;;;;;;;;;;5093961;28;20206;-86
2021/12/07 12:34:49;;;;;;;48.55;38.08;;;;;;;;;;5093953;28;20534;-84
2021/12/07 12:37:19;;;;;;;41.40;36.30;;;;;;;;;;5091538;28;20199;-85
2021/12/07 12:39:52;;;;;;;38.83;34.63;;;;;;;;;;5098614;28;20195;-85
2021/12/07 12:42:27;;;;;;;39.10;35.20;;;;;;;;;;5098108;28;20184;-86
2021/12/07 12:44:59;;;;;;;43.90;34.58;;;;;;;;;;5096401;28;20600;-86
2021/12/07 12:47:27;;;;;;;37.40;33.30;;;;;;;;;;5095851;28;20305;-86
2021/12/07 12:49:54;;;;;;;37.85;33.97;;;;;;;;;;5093793;28;20189;-85
2021/12/07 12:52:36;;;;;;;35.70;32.40;;;;;;;;;;5093378;28;20197;-84
2021/12/07 12:55:05;;;;;;;36.95;33.08;;;;;;;;;;5093637;28;20634;-85
2021/12/07 12:57:33;;;;;;;38.05;34.10;;;;;;;;;;5093179;28;20189;-86
2021/12/07 13:00:00;;;;;;;38.85;34.90;;;;;;;;;;5093112;28;20190;-84
2021/12/07 13:02:29;;;;;;;38.88;34.92;;;;;;;;;;5093587;28;20614;-86
2021/12/07 13:05:04;;;;;;;40.33;34.63;;;;;;;;;;5093702;28;20271;-86
2021/12/07 13:07:32;;;;;;;46.20;34.85;;;;;;;;;;5056940;28;20544;-86
2021/12/07 13:10:02;;;;;;;38.55;32.20;;;;;;;;;;5073527;28;20545;-85
2021/12/07 13:12:34;;;;;;;39.65;35.70;;;;;;;;;;5073791;28;20190;-86
2021/12/07 13:15:02;;;;;;;38.53;34.75;;;;;;;;;;5073460;28;20194;-86
2021/12/07 13:17:32;;;;;;;38.38;34.40;;;;;;;;;;5072613;28;20197;-84
2021/12/07 13:20:06;;;;;;;41.40;35.45;;;;;;;;;;5072014;28;20202;-80
2021/12/07 13:22:37;;;;;;;36.95;33.25;;;;;;;;;;5072213;28;20279;-84
2021/12/07 13:25:06;;;;;;;38.42;34.75;;;;;;;;;;5072116;28;20198;-83
2021/12/07 13:27:35;;;;;;;37.70;33.83;;;;;;;;;;5072037;28;20228;-84
2021/12/07 13:30:04;;;;;;;35.63;31.50;;;;;;;;;;5072072;28;20212;-84
2021/12/07 13:32:32;;;;;;;36.00;32.57;;;;;;;;;;5071916;28;20212;-84
2021/12/07 13:35:03;;;;;;;40.10;33.53;;;;;;;;;;5071935;28;21056;-83
2021/12/07 13:37:47;;;;;;;35.65;31.80;;;;;;;;;;5072662;28;20202;-82
2021/12/07 13:40:21;;;;;;;37.30;33.55;;;;;;;;;;5072682;28;20204;-84
2021/12/07 13:42:52;;;;;;;37.08;33.58;;;;;;;;;;5074167;28;20188;-83
2021/12/07 13:45:20;;;;;;;35.50;32.20;;;;;;;;;;5071392;28;20242;-83
2021/12/07 13:47:48;;;;;;;35.88;32.30;;;;;;;;;;5072579;28;20880;-84
2021/12/07 13:50:17;;;;;;;36.25;32.45;;;;;;;;;;5073337;28;20640;-84
2021/12/07 13:52:47;;;;;;;35.95;32.35;;;;;;;;;;5074464;28;20240;-83
2021/12/07 13:55:15;;;;;;;34.45;31.30;;;;;;;;;;5073507;28;20684;-84
2021/12/07 13:57:45;;;;;;;36.22;32.40;;;;;;;;;;5070974;28;20214;-84
2021/12/07 14:00:17;;;;;;;33.42;30.40;;;;;;;;;;5072583;28;20194;-84
2021/12/07 14:02:46;;;;;;;35.50;31.73;;;;;;;;;;5072145;28;20198;-83
2021/12/07 14:05:14;;;;;;;36.90;33.53;;;;;;;;;;5075225;28;20202;-83
2021/12/07 14:07:42;;;;;;;32.10;29.00;;;;;;;;;;5110074;28;20220;-84
2021/12/07 14:10:12;;;;;;;36.05;30.77;;;;;;;;;;5096139;28;20194;-84
2021/12/07 14:12:39;;;;;;;31.45;28.73;;;;;;;;;;5100154;28;20202;-84
2021/12/07 14:15:11;;;;;;;31.20;28.10;;;;;;;;;;5097353;28;20251;-84
2021/12/07 14:17:41;;;;;;;29.45;27.05;;;;;;;;;;5099503;28;20259;-84
2021/12/07 14:20:09;;;;;;;29.42;26.73;;;;;;;;;;5096202;28;20193;-84
2021/12/07 14:22:37;;;;;;;28.80;26.60;;;;;;;;;;5096778;28;20634;-84
2021/12/07 14:25:05;;;;;;;29.17;26.48;;;;;;;;;;5099271;28;20536;-83
2021/12/07 14:27:34;;;;;;;29.52;27.02;;;;;;;;;;5096844;28;20251;-84
2021/12/07 14:30:02;;;;;;;28.52;26.08;;;;;;;;;;5095908;28;20193;-84
2021/12/07 14:32:30;;;;;;;30.05;27.05;;;;;;;;;;5097852;28;20234;-84
2021/12/07 14:35:01;;;;;;;30.08;26.95;;;;;;;;;;5096227;28;20312;-84
2021/12/07 14:37:29;;;;;;;29.75;27.13;;;;;;;;;;5096848;28;20193;-84
2021/12/07 14:39:56;;;;;;;30.55;27.98;;;;;;;;;;5097897;28;20202;-84
2021/12/07 14:42:24;;;;;;;29.45;27.20;;;;;;;;;;5095941;28;20190;-84
2021/12/07 14:44:54;;;;;;;31.02;28.25;;;;;;;;;;5095841;28;20189;-83
2021/12/07 14:47:22;;;;;;;32.55;28.38;;;;;;;;;;5095916;28;20224;-83
2021/12/07 14:49:50;;;;;;;30.23;27.52;;;;;;;;;;5095538;28;20199;-84
2021/12/07 14:52:21;;;;;;;33.27;28.67;;;;;;;;;;5096453;28;20198;-84
2021/12/07 14:54:49;;;;;;;31.30;28.50;;;;;;;;;;5096406;28;20987;-84
2021/12/07 14:57:20;;;;;;;30.35;27.80;;;;;;;;;;5098044;28;20440;-83
2021/12/07 14:59:48;;;;;;;31.63;28.73;;;;;;;;;;5106132;28;20224;-83
2021/12/07 15:02:16;;;;;;;31.35;28.60;;;;;;;;;;5102454;28;20189;-84
2021/12/07 15:04:46;;;;;;;30.60;27.95;;;;;;;;;;5098045;28;20209;-84
2021/12/07 15:07:14;;;;;;;30.70;28.02;;;;;;;;;;5098683;28;20233;-84
2021/12/07 15:09:43;;;;;;;35.15;28.45;;;;;;;;;;5080831;28;20197;-82
2021/12/07 15:12:14;;;;;;;30.45;27.75;;;;;;;;;;5077585;28;20541;-84
2021/12/07 15:14:42;;;;;;;32.50;29.30;;;;;;;;;;5079355;28;20640;-83
2021/12/07 15:17:10;;;;;;;31.13;28.60;;;;;;;;;;5081097;28;20193;-83
2021/12/07 15:19:38;;;;;;;30.77;28.00;;;;;;;;;;5078653;28;20207;-83
2021/12/07 15:22:06;;;;;;;30.00;27.25;;;;;;;;;;5078937;28;20210;-85
2021/12/07 15:24:36;;;;;;;31.90;29.30;;;;;;;;;;5076603;28;20195;-83
2021/12/07 15:27:07;;;;;;;30.63;28.08;;;;;;;;;;5074671;28;20522;-83
2021/12/07 15:29:36;;;;;;;29.48;27.17;;;;;;;;;;5076085;28;20220;-84
2021/12/07 15:32:05;;;;;;;30.23;27.55;;;;;;;;;;5076817;28;20335;-83
2021/12/07 15:34:34;;;;;;;30.88;28.20;;;;;;;;;;5078556;28;20613;-83
2021/12/07 15:37:03;;;;;;;29.50;27.08;;;;;;;;;;5079401;28;20256;-84
2021/12/07 15:39:31;;;;;;;31.35;28.75;;;;;;;;;;5079084;28;20195;-83
2021/12/07 15:41:59;;;;;;;29.08;26.77;;;;;;;;;;5079279;28;20202;-83
2021/12/07 15:44:30;;;;;;;29.70;27.45;;;;;;;;;;5079458;28;20263;-83
2021/12/07 15:46:58;;;;;;;30.63;27.98;;;;;;;;;;5079015;28;20205;-84
2021/12/07 15:49:27;;;;;;;32.22;29.60;;;;;;;;;;5078617;28;20197;-83
2021/12/07 15:51:56;;;;;;;33.42;30.17;;;;;;;;;;5074954;28;20259;-84